Munchen>> — DF8083 — position and weather

sailwx.info

Track history (hours):
 
Tides and Currents Weather Stations Pressure Air Temp Water Temp Dewpoint Dewpoint Depression Visibility Wind Speed Wind Dir Waves Ship Positions

Munchen>>

Last reported at 2017-Dec-11 17:00 UTC. Time now 2017-Dec-11 17:15 UTC.
Position N 44°15' E 028°20'.

Length 37 m; draft 0.2 m.

Type: Towing. MMSI: 211644640.

Date/timePositionNaut miles runAvg speedWind from/ knotsBaromVisibWave heightAir tempDewpointWater temp
2017-Dec-11 17:00N 44°15' E 028°20'3 6.2
2017-Dec-11 16:30N 44°15' E 028°16'3 6.0
2017-Dec-11 16:00N 44°16' E 028°12'3 6.2
2017-Dec-11 15:30N 44°16' E 028°07'3 5.9
2017-Dec-11 14:59N 44°18' E 028°04'5 1.8
2017-Dec-11 12:22N 44°22' E 028°02'  
2017-Dec-04 10:30N 44°07' E 028°39'0 0.4
2017-Dec-04 10:00N 44°07' E 028°39'0 0.3
2017-Dec-04 09:30N 44°07' E 028°39'0 0.0
2017-Dec-04 09:00N 44°07' E 028°39'0 0.0
2017-Dec-04 08:30N 44°07' E 028°39'0 0.0
2017-Dec-04 08:00N 44°07' E 028°39'0 0.0
2017-Dec-04 07:30N 44°07' E 028°39'0 0.0
2017-Dec-04 07:00N 44°07' E 028°39'0 0.0
2017-Dec-04 06:30N 44°07' E 028°39'0 0.0
2017-Dec-04 06:00N 44°07' E 028°39'0 0.0
2017-Dec-04 05:30N 44°07' E 028°39'0 0.0
2017-Dec-04 05:00N 44°07' E 028°39'0 0.0
2017-Dec-04 04:30N 44°07' E 028°39'0 0.0
2017-Dec-04 04:00N 44°07' E 028°39'0 0.0
2017-Dec-04 03:30N 44°07' E 028°39'0 0.0
2017-Dec-04 03:00N 44°07' E 028°39'1 3.0
2017-Dec-04 02:30N 44°06' E 028°37'0 0.0
2017-Dec-04 02:00N 44°06' E 028°37'1 1.0
2017-Dec-04 01:30N 44°06' E 028°36'0 0.0
2017-Dec-04 01:00N 44°06' E 028°36'1 2.9
2017-Dec-04 00:30N 44°06' E 028°34'7 6.1
2017-Dec-03 23:22N 44°09' E 028°26'3 7.1
2017-Dec-03 22:59N 44°11' E 028°24'3 6.9
2017-Dec-03 22:30N 44°14' E 028°22'3 6.6
2017-Dec-03 22:00N 44°15' E 028°17'3 6.8
2017-Dec-03 21:30N 44°16' E 028°12'3 6.6
2017-Dec-03 21:00N 44°16' E 028°08'  
Track history (hours):
 
Tides and Currents Weather Stations Pressure Air Temp Water Temp Dewpoint Dewpoint Depression Visibility Wind Speed Wind Dir Waves Ship Positions

Munchen>>

Last reported at 2017-Dec-11 17:00 UTC. Time now 2017-Dec-11 17:15 UTC.
Position N 44°15' E 028°20'.

Length 37 m; draft 0.2 m.

Type: Towing. MMSI: 211644640.

Date/timePositionNaut miles runAvg speedWind from/ knotsBaromVisibWave heightAir tempDewpointWater temp
2017-Dec-11 17:00N 44°15' E 028°20'3 6.2
2017-Dec-11 16:30N 44°15' E 028°16'3 6.0
2017-Dec-11 16:00N 44°16' E 028°12'3 6.2
2017-Dec-11 15:30N 44°16' E 028°07'3 5.9
2017-Dec-11 14:59N 44°18' E 028°04'5 1.8
2017-Dec-11 12:22N 44°22' E 028°02'  
2017-Dec-04 10:30N 44°07' E 028°39'0 0.4
2017-Dec-04 10:00N 44°07' E 028°39'0 0.3
2017-Dec-04 09:30N 44°07' E 028°39'0 0.0
2017-Dec-04 09:00N 44°07' E 028°39'0 0.0
2017-Dec-04 08:30N 44°07' E 028°39'0 0.0
2017-Dec-04 08:00N 44°07' E 028°39'0 0.0
2017-Dec-04 07:30N 44°07' E 028°39'0 0.0
2017-Dec-04 07:00N 44°07' E 028°39'0 0.0
2017-Dec-04 06:30N 44°07' E 028°39'0 0.0
2017-Dec-04 06:00N 44°07' E 028°39'0 0.0
2017-Dec-04 05:30N 44°07' E 028°39'0 0.0
2017-Dec-04 05:00N 44°07' E 028°39'0 0.0
2017-Dec-04 04:30N 44°07' E 028°39'0 0.0
2017-Dec-04 04:00N 44°07' E 028°39'0 0.0
2017-Dec-04 03:30N 44°07' E 028°39'0 0.0
2017-Dec-04 03:00N 44°07' E 028°39'1 3.0
2017-Dec-04 02:30N 44°06' E 028°37'0 0.0
2017-Dec-04 02:00N 44°06' E 028°37'1 1.0
2017-Dec-04 01:30N 44°06' E 028°36'0 0.0
2017-Dec-04 01:00N 44°06' E 028°36'1 2.9
2017-Dec-04 00:30N 44°06' E 028°34'7 6.1
2017-Dec-03 23:22N 44°09' E 028°26'3 7.1
2017-Dec-03 22:59N 44°11' E 028°24'3 6.9
2017-Dec-03 22:30N 44°14' E 028°22'3 6.6
2017-Dec-03 22:00N 44°15' E 028°17'3 6.8
2017-Dec-03 21:30N 44°16' E 028°12'3 6.6
2017-Dec-03 21:00N 44°16' E 028°08'  

Dump ship's entire track history